Time;durP1;ratioP1;P1;durP2;ratioP2;P2;SDS_P1;SDS_P2;PMS_P1;PMS_P2;Temp;Humidity;BMP_temperature;BMP_pressure;BME280_temperature;BME280_humidity;BME280_pressure;Samples;Min_cycle;Max_cycle;Signal;HPM_P1;HPM_P2
2023/01/25 00:00:28;;;;;;;2.87;2.50;;;;;;;;;;5064502;28;20237;-82
2023/01/25 00:02:55;;;;;;;2.63;2.40;;;;;;;;;;5051275;28;20214;-81
2023/01/25 00:05:24;;;;;;;6.13;3.03;;;;;;;;;;5052445;28;20233;-82
2023/01/25 00:07:50;;;;;;;4.63;2.93;;;;;;;;;;5063189;28;20217;-82
2023/01/25 00:10:17;;;;;;;3.20;2.57;;;;;;;;;;5051201;28;20218;-82
2023/01/25 00:12:45;;;;;;;2.67;2.47;;;;;;;;;;5050005;28;20335;-81
2023/01/25 00:15:12;;;;;;;3.97;2.77;;;;;;;;;;5053349;28;20336;-82
2023/01/25 00:17:38;;;;;;;3.47;3.13;;;;;;;;;;5062196;28;20210;-80
2023/01/25 00:20:06;;;;;;;3.80;3.00;;;;;;;;;;5053992;28;20209;-81
2023/01/25 00:22:35;;;;;;;3.70;3.07;;;;;;;;;;5061551;28;20214;-82
2023/01/25 00:25:02;;;;;;;3.00;2.47;;;;;;;;;;5054137;28;20638;-82
2023/01/25 00:27:29;;;;;;;2.87;2.53;;;;;;;;;;5059032;28;20206;-81
2023/01/25 00:29:55;;;;;;;4.03;3.10;;;;;;;;;;5063824;28;20201;-81
2023/01/25 00:32:36;;;;;;;3.20;2.90;;;;;;;;;;5049829;28;20198;-81
2023/01/25 00:35:03;;;;;;;3.77;2.93;;;;;;;;;;5068566;28;20208;-81
2023/01/25 00:37:37;;;;;;;3.53;2.80;;;;;;;;;;5056933;28;20433;-81
2023/01/25 00:40:05;;;;;;;3.23;2.93;;;;;;;;;;5057771;28;20205;-81
2023/01/25 00:42:32;;;;;;;2.97;2.77;;;;;;;;;;5070957;28;20607;-81
2023/01/25 00:44:59;;;;;;;4.53;2.87;;;;;;;;;;5052974;28;20205;-81
2023/01/25 00:47:26;;;;;;;4.50;3.37;;;;;;;;;;5055958;28;20198;-81
2023/01/25 00:49:54;;;;;;;4.33;2.73;;;;;;;;;;5040774;28;20216;-80
2023/01/25 00:52:23;;;;;;;2.97;2.77;;;;;;;;;;5069912;28;20220;-81
2023/01/25 00:54:51;;;;;;;3.97;2.80;;;;;;;;;;5061647;28;20209;-80
2023/01/25 00:57:18;;;;;;;4.33;3.13;;;;;;;;;;5060099;28;20256;-81
2023/01/25 00:59:46;;;;;;;2.80;2.40;;;;;;;;;;5054874;28;20230;-81
2023/01/25 01:02:13;;;;;;;3.17;2.80;;;;;;;;;;5069607;28;20296;-80
2023/01/25 01:04:40;;;;;;;3.87;2.70;;;;;;;;;;5065330;28;20202;-81
2023/01/25 01:07:07;;;;;;;3.50;3.03;;;;;;;;;;5050039;28;20684;-81
2023/01/25 01:09:34;;;;;;;3.10;2.40;;;;;;;;;;5054501;28;20629;-81
2023/01/25 01:12:02;;;;;;;2.60;2.40;;;;;;;;;;5054355;28;20197;-81
2023/01/25 01:14:29;;;;;;;3.23;2.70;;;;;;;;;;5063739;28;20205;-81
2023/01/25 01:16:55;;;;;;;3.93;3.00;;;;;;;;;;5058384;28;20209;-81
2023/01/25 01:19:22;;;;;;;3.63;2.90;;;;;;;;;;5054144;28;20225;-81
2023/01/25 01:21:49;;;;;;;3.57;2.73;;;;;;;;;;5054165;28;20201;-81
2023/01/25 01:24:17;;;;;;;5.00;3.47;;;;;;;;;;5054494;28;20263;-80
2023/01/25 01:26:43;;;;;;;4.33;3.23;;;;;;;;;;5054054;28;20265;-81
2023/01/25 01:29:12;;;;;;;3.40;2.93;;;;;;;;;;5054575;28;20583;-81
2023/01/25 01:31:39;;;;;;;3.03;2.43;;;;;;;;;;5054178;28;20652;-81
2023/01/25 01:34:05;;;;;;;4.10;2.73;;;;;;;;;;5053923;28;20684;-81
2023/01/25 01:36:32;;;;;;;3.20;2.73;;;;;;;;;;5067576;28;20236;-80
2023/01/25 01:38:59;;;;;;;2.30;1.90;;;;;;;;;;5064998;28;20262;-81
2023/01/25 01:41:26;;;;;;;3.53;2.90;;;;;;;;;;5056518;28;20296;-81
2023/01/25 01:43:53;;;;;;;3.93;3.17;;;;;;;;;;5054020;28;20197;-81
2023/01/25 01:46:33;;;;;;;6.40;2.47;;;;;;;;;;5053329;28;20282;-81
2023/01/25 01:49:01;;;;;;;2.80;2.60;;;;;;;;;;5066897;28;20204;-80
2023/01/25 01:51:39;;;;;;;3.87;2.60;;;;;;;;;;5047400;28;20680;-81
2023/01/25 01:54:10;;;;;;;2.47;2.07;;;;;;;;;;5058399;28;20297;-80
2023/01/25 01:56:42;;;;;;;4.20;2.80;;;;;;;;;;5054049;28;20255;-81
2023/01/25 01:59:09;;;;;;;5.30;2.20;;;;;;;;;;5070187;28;20597;-81
2023/01/25 02:01:38;;;;;;;3.67;3.00;;;;;;;;;;5063279;28;20213;-81
2023/01/25 02:04:05;;;;;;;2.80;2.60;;;;;;;;;;5066602;28;20194;-81
2023/01/25 02:06:38;;;;;;;3.77;3.10;;;;;;;;;;5064780;28;20715;-81
2023/01/25 02:09:05;;;;;;;4.87;2.67;;;;;;;;;;5073687;28;20205;-81
2023/01/25 02:11:33;;;;;;;2.83;2.60;;;;;;;;;;5060739;28;20216;-81
2023/01/25 02:14:00;;;;;;;5.13;2.70;;;;;;;;;;5059120;28;20197;-81
2023/01/25 02:16:28;;;;;;;4.60;3.00;;;;;;;;;;5060449;28;20271;-81
2023/01/25 02:19:00;;;;;;;2.83;2.60;;;;;;;;;;5053182;28;20212;-81
2023/01/25 02:21:30;;;;;;;3.43;2.60;;;;;;;;;;5053345;28;20591;-81
2023/01/25 02:24:01;;;;;;;3.60;2.77;;;;;;;;;;5072864;28;20201;-81
2023/01/25 02:26:29;;;;;;;5.87;2.67;;;;;;;;;;5071313;28;20644;-81
2023/01/25 02:28:59;;;;;;;2.73;2.53;;;;;;;;;;5053030;28;20206;-81
2023/01/25 02:31:26;;;;;;;3.47;2.73;;;;;;;;;;5053118;28;20213;-81
2023/01/25 02:33:53;;;;;;;2.47;2.23;;;;;;;;;;5053533;28;20209;-81
2023/01/25 02:36:22;;;;;;;2.80;2.60;;;;;;;;;;5052939;28;20218;-80
2023/01/25 02:38:53;;;;;;;3.33;2.77;;;;;;;;;;5062767;28;20684;-80
2023/01/25 02:41:25;;;;;;;3.37;2.80;;;;;;;;;;5072741;28;20209;-81
2023/01/25 02:43:53;;;;;;;3.33;2.50;;;;;;;;;;5073031;28;20267;-81
2023/01/25 02:46:24;;;;;;;3.23;2.67;;;;;;;;;;5067736;28;20228;-80
2023/01/25 02:48:53;;;;;;;5.80;3.73;;;;;;;;;;5052559;28;20297;-80
2023/01/25 02:51:20;;;;;;;6.60;3.10;;;;;;;;;;5052804;28;20201;-80
2023/01/25 02:53:46;;;;;;;4.13;3.47;;;;;;;;;;5052374;28;20209;-80
2023/01/25 02:56:13;;;;;;;4.33;3.40;;;;;;;;;;5052189;28;20205;-80
2023/01/25 02:58:40;;;;;;;4.23;3.20;;;;;;;;;;5052357;28;20198;-80
2023/01/25 03:01:09;;;;;;;3.97;2.90;;;;;;;;;;5065357;28;20202;-80
2023/01/25 03:03:35;;;;;;;3.53;2.87;;;;;;;;;;5052279;28;20324;-80
2023/01/25 03:06:02;;;;;;;5.47;3.80;;;;;;;;;;5052029;28;20233;-80
2023/01/25 03:08:29;;;;;;;3.40;2.93;;;;;;;;;;5052196;28;20189;-80
2023/01/25 03:10:57;;;;;;;4.50;3.17;;;;;;;;;;5072015;28;20642;-80
2023/01/25 03:13:24;;;;;;;5.50;3.40;;;;;;;;;;5058810;28;20202;-81
2023/01/25 03:15:51;;;;;;;4.73;3.53;;;;;;;;;;5071434;28;20609;-80
2023/01/25 03:18:19;;;;;;;4.57;3.07;;;;;;;;;;5071734;28;20684;-80
2023/01/25 03:20:46;;;;;;;4.33;3.10;;;;;;;;;;5063315;28;20643;-80
2023/01/25 03:23:13;;;;;;;3.57;3.27;;;;;;;;;;5053407;28;20217;-80
2023/01/25 03:25:39;;;;;;;6.60;3.90;;;;;;;;;;5071447;28;20696;-80
2023/01/25 03:28:06;;;;;;;3.33;2.93;;;;;;;;;;5059203;28;20221;-80
2023/01/25 03:30:33;;;;;;;3.23;2.93;;;;;;;;;;5050779;28;20262;-81
2023/01/25 03:33:00;;;;;;;5.47;3.53;;;;;;;;;;5060618;28;20255;-80
2023/01/25 03:35:28;;;;;;;3.97;3.03;;;;;;;;;;5055445;28;20197;-80
2023/01/25 03:37:55;;;;;;;3.53;2.93;;;;;;;;;;5057012;28;20198;-80
2023/01/25 03:40:21;;;;;;;5.07;3.53;;;;;;;;;;5051688;28;20201;-80
2023/01/25 03:42:48;;;;;;;3.60;3.20;;;;;;;;;;5060573;28;20201;-80
2023/01/25 03:45:15;;;;;;;3.87;3.47;;;;;;;;;;5058517;28;20205;-80
2023/01/25 03:47:42;;;;;;;3.10;2.67;;;;;;;;;;5071590;28;20228;-80
2023/01/25 03:50:10;;;;;;;4.20;3.10;;;;;;;;;;5058072;28;20224;-80
2023/01/25 03:53:05;;;;;;;3.40;3.00;;;;;;;;;;5062110;28;20258;-80
2023/01/25 03:55:31;;;;;;;3.00;2.70;;;;;;;;;;5051040;28;20586;-81
2023/01/25 03:57:58;;;;;;;3.90;3.00;;;;;;;;;;5058095;28;20197;-80
2023/01/25 04:00:25;;;;;;;2.93;2.53;;;;;;;;;;5057578;28;20248;-80
2023/01/25 04:02:52;;;;;;;4.43;2.80;;;;;;;;;;5064099;28;20271;-80
2023/01/25 04:05:19;;;;;;;3.93;3.13;;;;;;;;;;5064219;28;20209;-80
2023/01/25 04:07:47;;;;;;;2.17;1.97;;;;;;;;;;5058684;28;20225;-80
2023/01/25 04:10:13;;;;;;;2.93;2.63;;;;;;;;;;5070744;28;20267;-79
2023/01/25 04:12:40;;;;;;;2.77;2.50;;;;;;;;;;5071041;28;20219;-79
2023/01/25 04:15:08;;;;;;;2.70;2.30;;;;;;;;;;5055644;28;20745;-80
2023/01/25 04:17:35;;;;;;;3.47;2.20;;;;;;;;;;5049069;28;20209;-78
2023/01/25 04:20:02;;;;;;;4.20;2.70;;;;;;;;;;5062698;28;20239;-78
2023/01/25 04:22:29;;;;;;;4.90;3.03;;;;;;;;;;5065350;28;20205;-77
2023/01/25 04:24:57;;;;;;;2.30;2.20;;;;;;;;;;5070384;28;20201;-78
2023/01/25 04:27:24;;;;;;;2.30;2.10;;;;;;;;;;5067830;28;20229;-78
2023/01/25 04:29:50;;;;;;;2.27;1.90;;;;;;;;;;5050477;28;20202;-80
2023/01/25 04:32:17;;;;;;;2.67;2.47;;;;;;;;;;5065585;28;20675;-79
2023/01/25 04:34:44;;;;;;;2.73;2.30;;;;;;;;;;5062138;28;20202;-80
2023/01/25 04:37:15;;;;;;;3.23;2.27;;;;;;;;;;5063992;28;20201;-80
2023/01/25 04:39:41;;;;;;;3.00;2.57;;;;;;;;;;5059919;28;20205;-81
2023/01/25 04:42:10;;;;;;;1.87;1.73;;;;;;;;;;5053833;28;20677;-80
2023/01/25 04:44:36;;;;;;;2.63;1.90;;;;;;;;;;5050636;28;20256;-81
2023/01/25 04:47:03;;;;;;;3.60;2.43;;;;;;;;;;5053527;28;20224;-81
2023/01/25 04:49:30;;;;;;;2.27;2.07;;;;;;;;;;5060378;28;20202;-81
2023/01/25 04:51:57;;;;;;;3.37;2.60;;;;;;;;;;5050274;28;20209;-80
2023/01/25 04:54:24;;;;;;;2.63;2.43;;;;;;;;;;5068163;28;20213;-81
2023/01/25 04:56:50;;;;;;;2.77;2.23;;;;;;;;;;5059359;28;20704;-80
2023/01/25 04:59:18;;;;;;;3.37;2.07;;;;;;;;;;5050995;28;20225;-80
2023/01/25 05:01:45;;;;;;;2.10;1.97;;;;;;;;;;5062178;28;20205;-80
2023/01/25 05:04:12;;;;;;;2.50;2.13;;;;;;;;;;5051901;28;20206;-80
2023/01/25 05:06:39;;;;;;;3.03;2.47;;;;;;;;;;5062690;28;20719;-80
2023/01/25 05:09:06;;;;;;;2.50;2.20;;;;;;;;;;5070628;28;20200;-80
2023/01/25 05:11:33;;;;;;;4.40;2.70;;;;;;;;;;5057830;28;20202;-80
2023/01/25 05:13:59;;;;;;;2.33;1.80;;;;;;;;;;5067347;28;20228;-81
2023/01/25 05:16:27;;;;;;;3.50;2.43;;;;;;;;;;5070992;28;20212;-79
2023/01/25 05:18:55;;;;;;;3.47;2.63;;;;;;;;;;5056890;28;20201;-83
2023/01/25 05:24:09;;;;;;;3.07;2.63;;;;;;;;;;5045123;28;20283;-80
2023/01/25 05:29:23;;;;;;;2.80;2.53;;;;;;;;;;5056884;28;20209;-80
2023/01/25 05:31:52;;;;;;;5.90;2.90;;;;;;;;;;5058409;28;20224;-80
2023/01/25 05:34:19;;;;;;;3.03;2.70;;;;;;;;;;5068743;28;20205;-80
2023/01/25 05:36:45;;;;;;;3.53;2.50;;;;;;;;;;5050964;28;20213;-80
2023/01/25 05:39:12;;;;;;;4.10;1.93;;;;;;;;;;5053883;28;20746;-80
2023/01/25 05:41:39;;;;;;;2.30;2.10;;;;;;;;;;5074204;28;20197;-80
2023/01/25 05:44:06;;;;;;;2.70;2.50;;;;;;;;;;5061233;28;20216;-80
2023/01/25 05:46:32;;;;;;;2.37;2.13;;;;;;;;;;5064732;28;20643;-80
2023/01/25 05:49:01;;;;;;;4.30;2.90;;;;;;;;;;5067596;28;20299;-80
2023/01/25 05:51:27;;;;;;;3.00;2.47;;;;;;;;;;5063824;28;20271;-80
2023/01/25 05:53:55;;;;;;;2.70;2.30;;;;;;;;;;5056857;28;20753;-80
2023/01/25 05:56:22;;;;;;;3.07;2.80;;;;;;;;;;5060888;28;20217;-80
2023/01/25 05:58:53;;;;;;;3.67;2.70;;;;;;;;;;5072394;28;20703;-80
2023/01/25 06:01:20;;;;;;;3.13;2.40;;;;;;;;;;5061506;28;20687;-80
2023/01/25 06:03:46;;;;;;;3.20;2.77;;;;;;;;;;5060213;28;20213;-80
2023/01/25 06:06:15;;;;;;;3.30;2.93;;;;;;;;;;5065276;28;20206;-80
2023/01/25 06:08:41;;;;;;;3.73;2.70;;;;;;;;;;5069150;28;20228;-80
2023/01/25 06:11:08;;;;;;;3.33;2.47;;;;;;;;;;5064711;28;20213;-80
2023/01/25 06:13:35;;;;;;;3.83;3.23;;;;;;;;;;5066747;28;20209;-79
2023/01/25 06:16:02;;;;;;;2.50;2.30;;;;;;;;;;5063069;28;20263;-80
2023/01/25 06:18:29;;;;;;;3.07;2.83;;;;;;;;;;5056805;28;20201;-80
2023/01/25 06:20:56;;;;;;;2.80;2.30;;;;;;;;;;5063355;28;20197;-81
2023/01/25 06:23:25;;;;;;;3.43;2.20;;;;;;;;;;5056766;28;20213;-80
2023/01/25 06:25:52;;;;;;;3.20;2.50;;;;;;;;;;5053598;28;20240;-80
2023/01/25 06:28:19;;;;;;;6.67;3.47;;;;;;;;;;5057524;28;20614;-79
2023/01/25 06:30:46;;;;;;;3.40;2.50;;;;;;;;;;5062756;28;20202;-80
2023/01/25 06:33:12;;;;;;;3.43;2.60;;;;;;;;;;5070482;28;20186;-80
2023/01/25 06:35:41;;;;;;;3.27;2.53;;;;;;;;;;5061905;28;20253;-80
2023/01/25 06:38:08;;;;;;;2.67;2.47;;;;;;;;;;5066534;28;20194;-80
2023/01/25 06:40:36;;;;;;;7.83;5.27;;;;;;;;;;5052828;28;20345;-80
2023/01/25 06:43:06;;;;;;;4.27;3.63;;;;;;;;;;5058467;28;20224;-80
2023/01/25 06:45:33;;;;;;;2.67;2.47;;;;;;;;;;5073367;28;20683;-80
2023/01/25 06:48:00;;;;;;;4.37;3.47;;;;;;;;;;5072560;28;20228;-81
2023/01/25 06:50:26;;;;;;;3.60;2.90;;;;;;;;;;5071784;28;20204;-81
2023/01/25 06:52:53;;;;;;;3.10;2.40;;;;;;;;;;5064159;28;20684;-80
2023/01/25 06:55:20;;;;;;;4.00;2.87;;;;;;;;;;5052287;28;20689;-81
2023/01/25 06:57:49;;;;;;;3.10;2.80;;;;;;;;;;5063410;28;20635;-80
2023/01/25 07:00:17;;;;;;;3.47;2.60;;;;;;;;;;5065358;28;20503;-80
2023/01/25 07:02:43;;;;;;;2.77;2.30;;;;;;;;;;5052869;28;20731;-80
2023/01/25 07:05:10;;;;;;;2.93;2.27;;;;;;;;;;5052658;28;20217;-80
2023/01/25 07:07:37;;;;;;;2.40;2.10;;;;;;;;;;5065695;28;20283;-80
2023/01/25 07:10:04;;;;;;;2.80;2.13;;;;;;;;;;5065351;28;20197;-80
2023/01/25 07:12:33;;;;;;;2.33;1.90;;;;;;;;;;5066136;28;20259;-80
2023/01/25 07:15:01;;;;;;;4.63;2.83;;;;;;;;;;5052771;28;20210;-80
2023/01/25 07:17:28;;;;;;;3.70;2.87;;;;;;;;;;5055742;28;20205;-80
2023/01/25 07:19:55;;;;;;;3.93;2.77;;;;;;;;;;5053359;28;20263;-80
2023/01/25 07:22:22;;;;;;;4.73;2.40;;;;;;;;;;5072084;28;20739;-80
2023/01/25 07:24:51;;;;;;;4.73;2.93;;;;;;;;;;5057424;28;20343;-82
2023/01/25 07:27:18;;;;;;;7.40;3.00;;;;;;;;;;5060590;28;20591;-80
2023/01/25 07:29:45;;;;;;;3.60;3.13;;;;;;;;;;5069532;28;20299;-80
2023/01/25 07:32:14;;;;;;;2.57;2.20;;;;;;;;;;5060736;28;20213;-80
2023/01/25 07:34:40;;;;;;;3.87;2.47;;;;;;;;;;5058616;28;20297;-80
2023/01/25 07:37:08;;;;;;;2.33;2.13;;;;;;;;;;5071437;28;20672;-80
2023/01/25 07:39:39;;;;;;;2.23;1.83;;;;;;;;;;5071937;28;20282;-80
2023/01/25 07:42:06;;;;;;;3.13;2.60;;;;;;;;;;5071332;28;20237;-79
2023/01/25 07:44:33;;;;;;;4.13;3.03;;;;;;;;;;5054409;28;20206;-80
2023/01/25 07:46:59;;;;;;;2.47;2.27;;;;;;;;;;5062066;28;20672;-80
2023/01/25 07:49:27;;;;;;;3.80;3.00;;;;;;;;;;5051011;28;20229;-83
2023/01/25 07:51:54;;;;;;;3.03;2.30;;;;;;;;;;5051635;28;20713;-80
2023/01/25 07:54:21;;;;;;;4.67;4.27;;;;;;;;;;5052092;28;20680;-79
2023/01/25 07:56:48;;;;;;;4.60;2.67;;;;;;;;;;5051275;28;20213;-80
2023/01/25 07:59:16;;;;;;;28.50;11.57;;;;;;;;;;5051450;28;20229;-80
2023/01/25 08:01:43;;;;;;;4.00;3.13;;;;;;;;;;5050985;28;20677;-80
2023/01/25 08:04:10;;;;;;;5.20;3.20;;;;;;;;;;5064732;28;20216;-80
2023/01/25 08:06:38;;;;;;;3.27;2.73;;;;;;;;;;5054756;28;20700;-81
2023/01/25 08:09:07;;;;;;;2.83;2.50;;;;;;;;;;5070101;28;20232;-80
2023/01/25 08:11:34;;;;;;;5.03;3.13;;;;;;;;;;5058836;28;20205;-81
2023/01/25 08:14:02;;;;;;;3.03;2.33;;;;;;;;;;5057376;28;20633;-80
2023/01/25 08:16:33;;;;;;;3.60;3.27;;;;;;;;;;5051293;28;20209;-81
2023/01/25 08:19:01;;;;;;;2.53;2.17;;;;;;;;;;5038888;28;20217;-81
2023/01/25 08:21:29;;;;;;;2.70;2.40;;;;;;;;;;5054816;28;20206;-81
2023/01/25 08:23:59;;;;;;;3.43;2.80;;;;;;;;;;5059276;28;20290;-81
2023/01/25 08:26:25;;;;;;;3.40;3.10;;;;;;;;;;5069031;28;20683;-81
2023/01/25 08:28:52;;;;;;;2.93;2.57;;;;;;;;;;5059890;28;20233;-81
2023/01/25 08:31:22;;;;;;;2.23;2.00;;;;;;;;;;5059530;28;20673;-81
2023/01/25 08:33:50;;;;;;;2.43;1.93;;;;;;;;;;5056684;28;20216;-82
2023/01/25 08:36:18;;;;;;;3.87;2.87;;;;;;;;;;5054913;28;20754;-81
2023/01/25 08:38:45;;;;;;;10.17;6.20;;;;;;;;;;5061059;28;20201;-80
2023/01/25 08:41:15;;;;;;;3.27;2.97;;;;;;;;;;5067113;28;20255;-82
2023/01/25 08:43:42;;;;;;;4.50;4.00;;;;;;;;;;5049365;28;20229;-81
2023/01/25 08:46:10;;;;;;;3.30;2.73;;;;;;;;;;5044924;28;20666;-81
2023/01/25 08:48:37;;;;;;;2.47;2.20;;;;;;;;;;5042894;28;20236;-82
2023/01/25 08:51:04;;;;;;;3.73;2.67;;;;;;;;;;5050693;28;20194;-82
2023/01/25 08:53:31;;;;;;;4.77;3.87;;;;;;;;;;5061534;28;20278;-81
2023/01/25 08:56:03;;;;;;;2.70;2.50;;;;;;;;;;5066714;28;20202;-86
2023/01/25 08:58:31;;;;;;;2.57;2.37;;;;;;;;;;5051242;28;20205;-82
2023/01/25 09:01:02;;;;;;;2.30;2.00;;;;;;;;;;5054390;28;20224;-86
2023/01/25 09:03:28;;;;;;;2.23;2.00;;;;;;;;;;5058588;28;20209;-84
2023/01/25 09:05:58;;;;;;;3.37;2.23;;;;;;;;;;5051063;28;20267;-82
2023/01/25 09:08:25;;;;;;;3.40;2.70;;;;;;;;;;5051180;28;20237;-81
2023/01/25 09:10:52;;;;;;;1.70;1.60;;;;;;;;;;5070453;28;20235;-82
2023/01/25 09:13:19;;;;;;;3.97;2.43;;;;;;;;;;5058305;28;20644;-82
2023/01/25 09:15:47;;;;;;;2.83;2.27;;;;;;;;;;5054774;28;20198;-82
2023/01/25 09:18:14;;;;;;;2.07;1.87;;;;;;;;;;5066340;28;20580;-83
2023/01/25 09:20:43;;;;;;;2.07;1.87;;;;;;;;;;5074692;28;20232;-81
2023/01/25 09:23:10;;;;;;;2.03;1.70;;;;;;;;;;5074219;28;20265;-81
2023/01/25 09:25:37;;;;;;;5.57;2.30;;;;;;;;;;5066791;28;20198;-82
2023/01/25 09:28:10;;;;;;;2.40;2.20;;;;;;;;;;5054286;28;20731;-81
2023/01/25 09:30:37;;;;;;;3.40;2.83;;;;;;;;;;5063384;28;20219;-82
2023/01/25 09:33:09;;;;;;;2.20;2.00;;;;;;;;;;5058144;28;20297;-82
2023/01/25 09:35:36;;;;;;;2.30;2.10;;;;;;;;;;5064110;28;20209;-81
2023/01/25 09:38:03;;;;;;;10.20;6.53;;;;;;;;;;5057323;28;20209;-81
2023/01/25 09:40:35;;;;;;;4.27;3.20;;;;;;;;;;5054428;28;20264;-86
2023/01/25 09:43:06;;;;;;;3.20;2.83;;;;;;;;;;5058391;28;20694;-80
2023/01/25 09:45:34;;;;;;;2.80;2.10;;;;;;;;;;5062441;28;20202;-82
2023/01/25 09:48:11;;;;;;;2.67;1.87;;;;;;;;;;5067091;28;20646;-82
2023/01/25 09:50:41;;;;;;;4.83;3.87;;;;;;;;;;5054222;28;20255;-81
2023/01/25 09:53:17;;;;;;;2.97;2.43;;;;;;;;;;5073891;28;20216;-82
2023/01/25 09:55:44;;;;;;;4.37;3.73;;;;;;;;;;5072028;28;20211;-82
2023/01/25 09:58:14;;;;;;;3.03;2.30;;;;;;;;;;5063093;28;20576;-80
2023/01/25 10:00:44;;;;;;;2.23;2.03;;;;;;;;;;5071494;28;20236;-82
2023/01/25 10:03:23;;;;;;;1.37;1.30;;;;;;;;;;5054080;28;20229;-81
2023/01/25 10:05:52;;;;;;;4.93;3.83;;;;;;;;;;5058590;28;20240;-83
2023/01/25 10:08:25;;;;;;;3.80;3.27;;;;;;;;;;5061772;28;20234;-81
2023/01/25 10:10:58;;;;;;;2.87;2.20;;;;;;;;;;5053525;28;20780;-82
2023/01/25 10:13:30;;;;;;;2.50;1.97;;;;;;;;;;5067257;28;20235;-82
2023/01/25 10:16:02;;;;;;;3.20;1.97;;;;;;;;;;5062163;28;20213;-81
2023/01/25 10:18:33;;;;;;;2.37;1.90;;;;;;;;;;5060052;28;20677;-82
2023/01/25 10:21:02;;;;;;;1.73;1.63;;;;;;;;;;5073944;28;20201;-82
2023/01/25 10:23:58;;;;;;;6.23;3.93;;;;;;;;;;5056875;28;20255;-82
2023/01/25 10:26:26;;;;;;;4.33;2.60;;;;;;;;;;5046854;28;20202;-82
2023/01/25 10:28:57;;;;;;;2.47;2.27;;;;;;;;;;5053614;28;20221;-82
2023/01/25 10:31:29;;;;;;;4.60;2.30;;;;;;;;;;5053092;28;20202;-82
2023/01/25 10:33:58;;;;;;;8.10;6.00;;;;;;;;;;5053665;28;20646;-81
2023/01/25 10:36:29;;;;;;;4.60;3.77;;;;;;;;;;5053118;28;20206;-82
2023/01/25 10:38:59;;;;;;;2.20;2.03;;;;;;;;;;5053156;28;20198;-82
2023/01/25 10:41:32;;;;;;;3.33;2.43;;;;;;;;;;5066548;28;20244;-82
2023/01/25 10:46:40;;;;;;;7.47;5.47;;;;;;;;;;5052091;28;20216;-82
2023/01/25 10:49:24;;;;;;;2.03;1.93;;;;;;;;;;5068216;28;20240;-82
2023/01/25 10:51:54;;;;;;;3.33;2.50;;;;;;;;;;5072859;28;20221;-81
2023/01/25 10:54:22;;;;;;;2.37;2.13;;;;;;;;;;5055893;28;20716;-82
2023/01/25 10:56:49;;;;;;;2.30;2.10;;;;;;;;;;5052563;28;20202;-82
2023/01/25 10:59:18;;;;;;;2.23;2.03;;;;;;;;;;5066216;28;20229;-83
2023/01/25 11:01:46;;;;;;;2.63;2.00;;;;;;;;;;5052721;28;20209;-82
2023/01/25 11:04:29;;;;;;;2.53;2.23;;;;;;;;;;5052682;28;20742;-82
2023/01/25 11:06:56;;;;;;;2.17;1.97;;;;;;;;;;5052511;28;20272;-82
2023/01/25 11:09:34;;;;;;;2.57;2.10;;;;;;;;;;5052395;28;20245;-83
2023/01/25 11:12:02;;;;;;;5.50;2.30;;;;;;;;;;5069144;28;20193;-82
2023/01/25 11:14:31;;;;;;;2.53;2.23;;;;;;;;;;5062335;28;20561;-82
2023/01/25 11:16:59;;;;;;;5.20;3.47;;;;;;;;;;5056348;28;20485;-82
2023/01/25 11:19:31;;;;;;;4.07;3.20;;;;;;;;;;5072732;28;20197;-82
2023/01/25 11:21:59;;;;;;;3.27;2.60;;;;;;;;;;5053616;28;20217;-82
2023/01/25 11:24:28;;;;;;;3.13;2.63;;;;;;;;;;5056424;28;20210;-82
2023/01/25 11:27:13;;;;;;;3.67;3.13;;;;;;;;;;5052176;28;20209;-82
2023/01/25 11:29:40;;;;;;;5.80;4.07;;;;;;;;;;5066738;28;20320;-82
2023/01/25 11:32:19;;;;;;;7.93;5.90;;;;;;;;;;5063531;28;20209;-83
2023/01/25 11:34:48;;;;;;;3.97;3.00;;;;;;;;;;5065513;28;20691;-83
2023/01/25 11:37:36;;;;;;;2.80;2.10;;;;;;;;;;5062652;28;20649;-82
2023/01/25 11:40:12;;;;;;;2.27;2.07;;;;;;;;;;5039426;28;20251;-82
2023/01/25 11:42:44;;;;;;;1.77;1.67;;;;;;;;;;5052169;28;20255;-82
2023/01/25 11:45:36;;;;;;;2.57;2.03;;;;;;;;;;5052716;28;20205;-82
2023/01/25 11:48:13;;;;;;;3.23;2.23;;;;;;;;;;5045919;28;20201;-82
2023/01/25 11:50:46;;;;;;;3.50;2.50;;;;;;;;;;5058317;28;20256;-83
2023/01/25 11:53:25;;;;;;;2.73;2.10;;;;;;;;;;5071010;28;20220;-82
2023/01/25 11:55:57;;;;;;;3.43;2.97;;;;;;;;;;5068544;28;20292;-82
2023/01/25 11:58:39;;;;;;;3.10;2.00;;;;;;;;;;5062777;28;20688;-82
2023/01/25 12:01:12;;;;;;;2.13;1.97;;;;;;;;;;5038568;28;20206;-86
2023/01/25 12:04:01;;;;;;;2.13;1.93;;;;;;;;;;5065890;28;20216;-82
2023/01/25 12:06:35;;;;;;;4.03;3.27;;;;;;;;;;5061102;28;20389;-82
2023/01/25 12:09:20;;;;;;;3.03;2.57;;;;;;;;;;5056444;28;20232;-82
2023/01/25 12:11:57;;;;;;;2.23;2.00;;;;;;;;;;5058175;28;20217;-82
2023/01/25 12:14:31;;;;;;;2.63;2.37;;;;;;;;;;5071726;28;20209;-82
2023/01/25 12:17:14;;;;;;;2.50;2.30;;;;;;;;;;5071460;28;20204;-82
2023/01/25 12:19:52;;;;;;;3.13;2.10;;;;;;;;;;5071109;28;20243;-83
2023/01/25 12:22:41;;;;;;;2.27;2.07;;;;;;;;;;5063764;28;20213;-82
2023/01/25 12:25:19;;;;;;;1.77;1.67;;;;;;;;;;5048282;28;20205;-82
2023/01/25 12:27:57;;;;;;;2.30;2.10;;;;;;;;;;5070942;28;20598;-81
2023/01/25 12:30:28;;;;;;;3.83;2.87;;;;;;;;;;5051106;28;20229;-82
2023/01/25 12:32:59;;;;;;;6.23;4.23;;;;;;;;;;5052013;28;20750;-82
2023/01/25 12:35:32;;;;;;;3.93;3.53;;;;;;;;;;5071036;28;20209;-82
2023/01/25 12:38:04;;;;;;;11.43;6.53;;;;;;;;;;5070616;28;20204;-82
2023/01/25 12:40:43;;;;;;;5.57;2.73;;;;;;;;;;5061457;28;20202;-82
2023/01/25 12:43:15;;;;;;;2.80;2.60;;;;;;;;;;5064783;28;20284;-82
2023/01/25 12:45:44;;;;;;;5.60;3.80;;;;;;;;;;5051378;28;20193;-82
2023/01/25 12:48:17;;;;;;;7.37;5.33;;;;;;;;;;5045301;28;20294;-82
2023/01/25 12:50:49;;;;;;;5.03;3.93;;;;;;;;;;5075452;28;20231;-82
2023/01/25 12:53:20;;;;;;;2.37;2.03;;;;;;;;;;5067284;28;20652;-82
2023/01/25 12:55:48;;;;;;;4.43;3.67;;;;;;;;;;5057490;28;20691;-82
2023/01/25 12:58:20;;;;;;;6.00;3.37;;;;;;;;;;5065609;28;20206;-82
2023/01/25 13:00:54;;;;;;;6.10;4.07;;;;;;;;;;5059069;28;20236;-81
2023/01/25 13:03:29;;;;;;;2.90;2.63;;;;;;;;;;5064042;28;20201;-82
2023/01/25 13:06:02;;;;;;;5.13;4.63;;;;;;;;;;5054903;28;20205;-82
2023/01/25 13:08:37;;;;;;;3.17;2.87;;;;;;;;;;5055258;28;20201;-82
2023/01/25 13:11:12;;;;;;;3.87;2.93;;;;;;;;;;5062348;28;20312;-82
2023/01/25 13:13:40;;;;;;;3.00;2.70;;;;;;;;;;5061430;28;20206;-82
2023/01/25 13:16:36;;;;;;;5.47;3.00;;;;;;;;;;5065205;28;20688;-82
2023/01/25 13:19:03;;;;;;;7.40;5.27;;;;;;;;;;5028648;28;20213;-81
2023/01/25 13:21:44;;;;;;;4.40;3.67;;;;;;;;;;5054998;28;20205;-82
2023/01/25 13:24:18;;;;;;;9.63;7.30;;;;;;;;;;5065687;28;20221;-82
2023/01/25 13:27:24;;;;;;;9.20;5.77;;;;;;;;;;5058063;28;20296;-82
2023/01/25 13:29:56;;;;;;;9.57;6.60;;;;;;;;;;5063251;28;20315;-81
2023/01/25 13:33:02;;;;;;;10.43;7.20;;;;;;;;;;5074349;28;20576;-82
2023/01/25 13:35:40;;;;;;;6.80;4.67;;;;;;;;;;5043114;28;20233;-82
2023/01/25 13:38:26;;;;;;;3.90;2.60;;;;;;;;;;5054339;28;20217;-82
2023/01/25 13:41:18;;;;;;;4.27;3.90;;;;;;;;;;5053947;28;20572;-82
2023/01/25 13:44:08;;;;;;;4.77;3.53;;;;;;;;;;5029724;28;20227;-81
2023/01/25 13:46:35;;;;;;;7.03;3.97;;;;;;;;;;5041325;28;20217;-82
2023/01/25 13:49:06;;;;;;;3.60;2.57;;;;;;;;;;5067499;28;20258;-82
2023/01/25 13:51:36;;;;;;;12.27;7.50;;;;;;;;;;5074230;28;20233;-82
2023/01/25 13:54:03;;;;;;;5.40;4.40;;;;;;;;;;5072412;28;20220;-82
2023/01/25 13:56:33;;;;;;;10.30;7.43;;;;;;;;;;5054244;28;20210;-82
2023/01/25 13:59:00;;;;;;;3.23;2.93;;;;;;;;;;5053550;28;20754;-82
2023/01/25 14:01:28;;;;;;;2.83;2.27;;;;;;;;;;5054036;28;20288;-81
2023/01/25 14:03:58;;;;;;;4.07;3.50;;;;;;;;;;5053629;28;20197;-82
2023/01/25 14:06:27;;;;;;;3.60;2.73;;;;;;;;;;5053542;28;20205;-82
2023/01/25 14:08:56;;;;;;;10.17;6.07;;;;;;;;;;5053968;28;20205;-82
2023/01/25 14:11:24;;;;;;;6.17;3.73;;;;;;;;;;5064301;28;20225;-82
2023/01/25 14:14:01;;;;;;;5.13;4.07;;;;;;;;;;5073424;28;20204;-82
2023/01/25 14:16:28;;;;;;;11.83;6.57;;;;;;;;;;5073739;28;20213;-81
2023/01/25 14:18:57;;;;;;;5.47;3.87;;;;;;;;;;5073072;28;20599;-81
2023/01/25 14:21:24;;;;;;;4.27;2.80;;;;;;;;;;5060116;28;20213;-82
2023/01/25 14:23:52;;;;;;;7.33;4.40;;;;;;;;;;5053779;28;20596;-82
2023/01/25 14:26:22;;;;;;;10.20;3.90;;;;;;;;;;5066900;28;20623;-82
2023/01/25 14:28:52;;;;;;;3.63;2.87;;;;;;;;;;5048375;28;20215;-82
2023/01/25 14:31:22;;;;;;;5.93;3.17;;;;;;;;;;5072604;28;20598;-82
2023/01/25 14:33:53;;;;;;;3.20;2.87;;;;;;;;;;5053029;28;20759;-82
2023/01/25 14:36:22;;;;;;;3.30;2.80;;;;;;;;;;5066499;28;20208;-82
2023/01/25 14:38:49;;;;;;;2.53;2.20;;;;;;;;;;5063004;28;20287;-81
2023/01/25 14:41:18;;;;;;;3.03;2.70;;;;;;;;;;5059993;28;20317;-82
2023/01/25 14:43:47;;;;;;;3.70;2.83;;;;;;;;;;5063175;28;20210;-82
2023/01/25 14:46:27;;;;;;;4.33;3.90;;;;;;;;;;5066397;28;20264;-82
2023/01/25 14:49:23;;;;;;;5.50;3.93;;;;;;;;;;5053197;28;20209;-82
2023/01/25 14:51:52;;;;;;;7.80;5.63;;;;;;;;;;5042704;28;20397;-82
2023/01/25 14:54:21;;;;;;;8.17;4.43;;;;;;;;;;5066614;28;20209;-82
2023/01/25 14:56:49;;;;;;;36.87;15.33;;;;;;;;;;5063839;28;20208;-82
2023/01/25 14:59:30;;;;;;;23.07;11.53;;;;;;;;;;5057911;28;20232;-82
2023/01/25 15:02:01;;;;;;;16.87;8.70;;;;;;;;;;5059768;28;20205;-82
2023/01/25 15:04:28;;;;;;;12.70;6.90;;;;;;;;;;5039438;28;20629;-81
2023/01/25 15:06:56;;;;;;;21.27;11.57;;;;;;;;;;5052741;28;20216;-82